Meaford, Canada
Current Conditions -  °F | °C
As of 9:00 PM on Friday 24 Oct 2014 (Local Time) from CYVV Reporting Station
Overcast Overcast  
Wind Chill: 50°   Ceiling: 2800
Heat Index: 50°   Visibility: 8mi
Dew Point: 46°   Wind: 3mph
Humidity: 87%   Direction: 180°S
Pressure: 29.92"   Gusts: NA
Location:  44.61°N, 80.59°W
Report Text: CYVV 250100Z 18003KT 8SM OVC028 10/08 A2992 RMK SC8 SLP140
Loading
Personal Weather Stations






























Interactive Weather Map
Tropical Storm Tracking
New forecast layout! Learn more

10-Day Weather Forecast

Advertisements
Track Severe Weather on mobile